Emirates...

Airbus92

Well-known member
Utente Registrato
20 Luglio 2009
1,059
0
Gallarate (VA)
Ragazzi, schedulato il 343 dell'Emirates!!!!

ore 13.45 e visto il gg atterra sulla L.... Io sarò al parcheggio eurofly in occasione dell'atterraggio del mio amico sul Cargoitalia.... Speriamo che passa di li!!!

Saluti:D

P.S. Se fa bel tempo riesco anche a vedere il 747F Emirates....
 
Ultima modifica:

Fabio88

Well-known member
Utente Registrato
27 Novembre 2006
1,268
0
Fagnano Olona, Lombardia.
Visto il taf mi sa che domani pomeriggio mi sa che conviene evitare foto...
LIMC 021700Z 0218/0318 VRB05KT 9999 SCT030 SCT070 TEMPO 0310/0318 5000 TSRA SCT015CB BKN035

P.s. Nel caso invece il taf sia errato, secondo me ti conviene l'atterraggio al solito posto sulla L.... da li non può scappare... mentre atterrando in L può capitare, e abbastanza spesso, che liberi prima e lo puoi solo vedere da lontano mangiandoti le mani...
Fabio
 

Airbus92

Well-known member
Utente Registrato
20 Luglio 2009
1,059
0
Gallarate (VA)
Visto il taf mi sa che domani pomeriggio mi sa che conviene evitare foto...
LIMC 021700Z 0218/0318 VRB05KT 9999 SCT030 SCT070 TEMPO 0310/0318 5000 TSRA SCT015CB BKN035

P.s. Nel caso invece il taf sia errato, secondo me ti conviene l'atterraggio al solito posto sulla L.... da li non può scappare... mentre atterrando in L può capitare, e abbastanza spesso, che liberi prima e lo puoi solo vedere da lontano mangiandoti le mani...
Fabio
Cavolo........ No speriamo di no!
Mi scordo sempre di guardare il metar di LIMC... Grazie Fabio

EDIT: Scusa, non è il metar... è il TAF come dici tu... Mi confondo quasi sempre XD
 

ketch88

Well-known member
Utente Registrato
5 Gennaio 2009
1,060
0
morimondo
un'orra fa c'era un bel temporale... strade praticamente allagate compresa la superstrada tra l'aeroporto e busto... l'ho percorsa a 50km/h
 

DadoB87

Well-known member
Utente Registrato
6 Febbraio 2009
826
0
Gallarate
no è sempre segnato come 343.. ma poi cambiano mettendo quello ke arriva veramente ossia il 332